This is the latest recevied weather packets stored in our database for station/object ALTO-WX. If no packets are shown the sender has not sent any weather packets the latest 10 day(s).
| Time | Temp. | Humidity | Pressure | Rain* | Wind** | Luminosity | Snow |
|---|---|---|---|---|---|---|---|
| 1777914939 | 21.67° C | 32% | 972.4 hPa | 0 mm | - | - | - |
| 1777914064 | 21.11° C | 30% | 972.1 hPa | 0 mm | - | - | - |
| 1777913139 | 21.11° C | 42% | 972.6 hPa | 0 mm | - | - | - |
| 1777912253 | 20.56° C | 42% | 972.6 hPa | 0 mm | - | - | - |
| 1777911339 | 20° C | 42% | 972.6 hPa | 0 mm | - | - | - |
| 1777910470 | 19.44° C | 42% | 972.6 hPa | 0 mm | - | - | - |
| 1777909538 | 18.89° C | 58% | 973 hPa | 0 mm | - | - | - |
| 1777908655 | 18.33° C | 58% | 973 hPa | 0 mm | - | - | - |
| 1777907740 | 17.78° C | 58% | 973 hPa | 0 mm | - | - | - |
| 1777906872 | 17.22° C | 58% | 973 hPa | 0 mm | - | - | - |
| 1777905938 | 16.67° C | 64% | 973.4 hPa | 0 mm | - | - | - |
| 1777905057 | 16.11° C | 68% | 974 hPa | 0 mm | - | - | - |
| 1777904134 | 15.56° C | 68% | 974 hPa | 0 mm | - | - | - |
| 1777903276 | 15° C | 65% | 973.1 hPa | 0 mm | - | - | - |
| 1777902338 | 13.89° C | 69% | 973 hPa | 0 mm | - | - | - |
| 1777901456 | 13.33° C | 69% | 973 hPa | 0 mm | - | - | - |
| 1777900539 | 12.78° C | 69% | 973 hPa | 0 mm | - | - | - |
| 1777899669 | 12.22° C | 74% | 973 hPa | 0 mm | - | - | - |
| 1777898738 | 11.11° C | 79% | 973.3 hPa | 0 mm | - | - | - |
| 1777897856 | 10.56° C | 79% | 973.3 hPa | 0 mm | - | - | - |
| 1777896938 | 10° C | 79% | 973.3 hPa | 0 mm | - | - | - |
| 1777896072 | 9.44° C | 79% | 973.3 hPa | 0 mm | - | - | - |
| 1777895138 | 8.33° C | 79% | 972.3 hPa | 0 mm | - | - | - |
| 1777894255 | 8.33° C | 82% | 972.8 hPa | 0 mm | - | - | - |
| 1777893338 | 7.78° C | 82% | 972.8 hPa | 0 mm | - | - | - |
* Rain latest hour (hover to see other rain measurements)
** Current wind speed in m/s (hover to see current wind gust speed)